Time;durP1;ratioP1;P1;durP2;ratioP2;P2;SDS_P1;SDS_P2;PMS_P1;PMS_P2;Temp;Humidity;BMP_temperature;BMP_pressure;BME280_temperature;BME280_humidity;BME280_pressure;Samples;Min_cycle;Max_cycle;Signal;HPM_P1;HPM_P2
2022/03/10 00:00:32;;;;;;;15.35;8.85;;;;;;;1.15;100.00;101653.03;6242953;28;20065;-92
2022/03/10 00:03:34;;;;;;;17.17;9.73;;;;;;;1.10;100.00;101654.84;6236946;28;20049;-92
2022/03/10 00:06:36;;;;;;;13.63;8.40;;;;;;;1.07;100.00;101652.34;6239344;28;20470;-92
2022/03/10 00:09:38;;;;;;;15.18;8.93;;;;;;;1.03;100.00;101651.56;6238751;28;20556;-92
2022/03/10 00:12:48;;;;;;;14.93;8.90;;;;;;;0.96;100.00;101657.66;6241452;28;20033;-92
2022/03/10 00:15:50;;;;;;;13.30;8.43;;;;;;;0.93;100.00;101657.72;6240822;28;20047;-92
2022/03/10 00:18:52;;;;;;;15.40;9.13;;;;;;;0.92;100.00;101662.84;6236345;28;20042;-92
2022/03/10 00:21:54;;;;;;;15.48;8.52;;;;;;;0.90;100.00;101668.00;6240551;28;20315;-92
2022/03/10 00:24:57;;;;;;;14.57;8.55;;;;;;;0.92;100.00;101671.34;6239227;28;20041;-92
2022/03/10 00:27:59;;;;;;;18.25;9.70;;;;;;;0.93;100.00;101673.03;6238400;28;20072;-92
2022/03/10 00:31:01;;;;;;;14.82;9.32;;;;;;;0.90;100.00;101674.81;6239060;28;20403;-92
2022/03/10 00:34:04;;;;;;;17.45;9.40;;;;;;;0.85;100.00;101670.63;6239394;28;20041;-92
2022/03/10 00:37:07;;;;;;;15.80;9.43;;;;;;;0.82;100.00;101674.94;6240815;28;20662;-91
2022/03/10 00:40:09;;;;;;;16.83;10.65;;;;;;;0.80;100.00;101679.25;6240736;28;20426;-92
2022/03/10 00:43:13;;;;;;;18.48;10.25;;;;;;;0.74;100.00;101677.63;6241831;28;20505;-92
2022/03/10 00:46:15;;;;;;;16.42;9.80;;;;;;;0.71;100.00;101681.97;6232256;28;20060;-92
2022/03/10 00:49:18;;;;;;;17.20;9.57;;;;;;;0.70;100.00;101693.03;6250332;28;20053;-92
2022/03/10 00:52:20;;;;;;;17.83;10.13;;;;;;;0.67;100.00;101690.53;6233599;28;20339;-91
2022/03/10 00:55:22;;;;;;;17.70;10.48;;;;;;;0.65;100.00;101698.22;6234149;28;20049;-91
2022/03/10 00:58:24;;;;;;;16.08;9.63;;;;;;;0.61;100.00;101707.59;6236467;28;20336;-91
2022/03/10 01:01:27;;;;;;;18.58;10.25;;;;;;;0.57;100.00;101705.13;6235765;28;20056;-91
2022/03/10 01:04:29;;;;;;;19.63;11.00;;;;;;;0.52;100.00;101712.91;6237697;28;20057;-91
2022/03/10 01:07:32;;;;;;;17.63;10.63;;;;;;;0.46;100.00;101718.09;6236886;28;20045;-91
2022/03/10 01:10:34;;;;;;;18.48;10.18;;;;;;;0.39;100.00;101707.16;6230519;28;20065;-91
2022/03/10 01:13:36;;;;;;;19.50;11.30;;;;;;;0.37;100.00;101714.00;6238524;28;20056;-91
2022/03/10 01:16:38;;;;;;;19.02;10.75;;;;;;;0.31;100.00;101719.19;6253658;28;20059;-91
2022/03/10 01:19:42;;;;;;;16.60;10.88;;;;;;;0.27;100.00;101716.72;6238849;28;20049;-91
2022/03/10 01:22:44;;;;;;;17.25;11.02;;;;;;;0.19;100.00;101722.78;6237128;28;20076;-91
2022/03/10 01:25:50;;;;;;;18.80;10.90;;;;;;;0.14;100.00;101722.00;6233603;28;20045;-91
2022/03/10 01:28:52;;;;;;;16.88;11.25;;;;;;;0.11;100.00;101726.31;6233652;28;20410;-91
2022/03/10 01:31:55;;;;;;;20.45;11.45;;;;;;;0.08;100.00;101721.28;6236136;28;20042;-91
2022/03/10 01:34:57;;;;;;;21.23;11.48;;;;;;;0.05;100.00;101718.78;6232948;28;20046;-91
2022/03/10 01:37:59;;;;;;;19.58;11.25;;;;;;;-0.01;100.00;101715.47;6238280;28;20371;-91
2022/03/10 01:41:02;;;;;;;20.73;10.73;;;;;;;0.03;100.00;101713.72;6234140;28;20104;-91
2022/03/10 01:44:08;;;;;;;19.10;10.75;;;;;;;0.07;100.00;101715.34;6236849;28;20034;-91
2022/03/10 01:47:10;;;;;;;19.63;12.13;;;;;;;0.06;100.00;101721.31;6235234;28;20354;-91
2022/03/10 01:50:14;;;;;;;18.55;11.15;;;;;;;0.04;100.00;101715.38;6236663;28;20179;-91
2022/03/10 01:53:17;;;;;;;23.50;12.05;;;;;;;0.08;100.00;101722.13;6238007;28;20328;-91
2022/03/10 01:56:22;;;;;;;20.80;12.18;;;;;;;0.06;100.00;101712.84;6230116;28;20037;-90
2022/03/10 01:59:26;;;;;;;18.80;10.27;;;;;;;0.04;100.00;101707.75;6228562;28;20110;-90
2022/03/10 02:02:28;;;;;;;19.50;11.05;;;;;;;0.03;100.00;101706.09;6241904;28;20073;-90
2022/03/10 02:05:31;;;;;;;17.52;9.52;;;;;;;0.02;100.00;101701.84;6234638;28;20050;-90
2022/03/10 02:11:55;;;;;;;18.00;10.82;;;;;;;-0.04;100.00;101710.41;6253024;28;20064;-90
2022/03/10 02:18:33;;;;;;;18.50;10.18;;;;;;;-0.14;100.00;101706.34;6232940;28;20037;-90
2022/03/10 02:21:35;;;;;;;17.65;10.60;;;;;;;-0.15;100.00;101703.81;6240576;28;20042;-90
2022/03/10 02:24:39;;;;;;;22.80;12.23;;;;;;;-0.18;100.00;101704.69;6233295;28;20056;-90
2022/03/10 02:27:41;;;;;;;17.42;10.55;;;;;;;-0.20;100.00;101697.97;6234414;28;20044;-90
2022/03/10 02:30:44;;;;;;;20.67;11.70;;;;;;;-0.20;100.00;101690.31;6252952;28;20041;-90
2022/03/10 02:33:46;;;;;;;20.23;10.60;;;;;;;-0.23;100.00;101696.31;6235154;28;20524;-90
2022/03/10 02:36:48;;;;;;;19.70;11.05;;;;;;;-0.26;100.00;101696.34;6237196;28;20115;-90
2022/03/10 02:39:53;;;;;;;21.73;11.60;;;;;;;-0.31;100.00;101691.31;6240586;28;20052;-90
2022/03/10 02:42:55;;;;;;;19.10;11.40;;;;;;;-0.29;100.00;101696.41;6245218;28;20056;-90
2022/03/10 02:45:57;;;;;;;21.23;11.77;;;;;;;-0.35;100.00;101692.22;6252713;28;20033;-89
2022/03/10 02:49:00;;;;;;;20.67;12.38;;;;;;;-0.34;100.00;101693.94;6250232;28;20060;-90
2022/03/10 02:52:09;;;;;;;19.20;12.02;;;;;;;-0.41;100.00;101694.88;6239344;28;20040;-90
2022/03/10 02:55:16;;;;;;;20.83;11.23;;;;;;;-0.42;100.00;101695.75;6240720;28;20405;-90
2022/03/10 02:58:18;;;;;;;21.70;11.18;;;;;;;-0.46;100.00;101694.94;6237275;28;20061;-90
2022/03/10 03:01:20;;;;;;;21.23;11.77;;;;;;;-0.49;100.00;101696.69;6216743;28;20042;-90
2022/03/10 03:04:22;;;;;;;18.67;11.63;;;;;;;-0.51;100.00;101691.63;6235948;28;20049;-90
2022/03/10 03:07:24;;;;;;;18.95;11.10;;;;;;;-0.52;100.00;101687.41;6230884;28;20049;-90
2022/03/10 03:10:26;;;;;;;20.27;11.60;;;;;;;-0.52;100.00;101692.50;6237400;28;20288;-90
2022/03/10 03:13:29;;;;;;;19.45;11.50;;;;;;;-0.54;100.00;101695.94;6239132;28;20574;-90
2022/03/10 03:16:31;;;;;;;19.80;11.77;;;;;;;-0.56;100.00;101697.66;6237987;28;20151;-90
2022/03/10 03:19:33;;;;;;;17.77;10.88;;;;;;;-0.57;100.00;101701.91;6235569;28;20046;-90
2022/03/10 03:22:35;;;;;;;23.08;12.35;;;;;;;-0.59;100.00;101702.78;6234081;28;20041;-90
2022/03/10 03:25:37;;;;;;;18.25;10.68;;;;;;;-0.61;100.00;101707.88;6237380;28;20788;-90
2022/03/10 03:28:39;;;;;;;22.90;11.65;;;;;;;-0.63;100.00;101709.59;6223429;28;20042;-90
2022/03/10 03:31:41;;;;;;;24.23;11.70;;;;;;;-0.61;100.00;101709.59;6236654;28;20064;-90
2022/03/10 03:34:43;;;;;;;18.23;11.18;;;;;;;-0.60;100.00;101707.00;6235712;28;20038;-90
2022/03/10 03:37:45;;;;;;;19.48;11.60;;;;;;;-0.60;100.00;101696.81;6238003;28;20823;-90
2022/03/10 03:40:47;;;;;;;19.60;10.60;;;;;;;-0.58;100.00;101704.44;6238116;28;20051;-90
2022/03/10 03:43:56;;;;;;;17.25;11.32;;;;;;;-0.57;100.00;101704.44;6233980;28;20525;-90
2022/03/10 03:46:58;;;;;;;18.25;10.98;;;;;;;-0.60;100.00;101706.16;6244361;28;20407;-90
2022/03/10 03:50:01;;;;;;;20.33;11.02;;;;;;;-0.62;100.00;101705.34;6230065;28;20044;-90
2022/03/10 03:53:03;;;;;;;19.63;10.60;;;;;;;-0.65;100.00;101708.75;6247627;28;20049;-90
2022/03/10 03:56:05;;;;;;;19.80;10.75;;;;;;;-0.67;100.00;101706.25;6236077;28;20045;-90
2022/03/10 03:59:07;;;;;;;17.08;10.38;;;;;;;-0.69;100.00;101702.06;6250211;28;20497;-90
2022/03/10 04:02:09;;;;;;;18.77;11.32;;;;;;;-0.71;100.00;101699.53;6206693;28;20629;-90
2022/03/10 04:05:12;;;;;;;18.60;10.57;;;;;;;-0.73;100.00;101703.78;6232846;28;20037;-90
2022/03/10 04:08:14;;;;;;;19.30;10.40;;;;;;;-0.74;100.00;101704.66;6232710;28;20546;-90
2022/03/10 04:11:17;;;;;;;19.15;10.20;;;;;;;-0.75;100.00;101705.50;6252106;28;20102;-90
2022/03/10 04:14:19;;;;;;;19.25;9.85;;;;;;;-0.73;100.00;101701.25;6231592;28;20038;-90
2022/03/10 04:17:22;;;;;;;14.35;10.00;;;;;;;-0.74;100.00;101704.66;6236952;28;20076;-90
2022/03/10 04:20:24;;;;;;;15.57;9.10;;;;;;;-0.77;100.00;101714.00;6234775;28;20052;-90
2022/03/10 04:23:26;;;;;;;17.75;10.63;;;;;;;-0.78;100.00;101718.25;6237868;28;20118;-90
2022/03/10 04:26:28;;;;;;;20.58;11.25;;;;;;;-0.80;100.00;101724.22;6236132;28;20489;-90
2022/03/10 04:29:30;;;;;;;14.95;9.85;;;;;;;-0.83;100.00;101725.09;6237969;28;20051;-90
2022/03/10 04:32:59;;;;;;;17.20;9.98;;;;;;;-0.82;100.00;101728.47;6232531;28;20517;-90
2022/03/10 04:36:02;;;;;;;15.98;9.98;;;;;;;-0.86;100.00;101722.59;6227741;28;20050;-90
2022/03/10 04:39:04;;;;;;;13.82;9.05;;;;;;;-0.87;100.00;101733.59;6230987;28;20052;-90
2022/03/10 04:42:06;;;;;;;13.73;9.65;;;;;;;-0.83;100.00;101729.34;6236317;28;20112;-90
2022/03/10 04:45:09;;;;;;;14.75;9.63;;;;;;;-0.86;100.00;101725.16;6251086;28;20052;-90
2022/03/10 04:48:11;;;;;;;16.95;9.85;;;;;;;-0.83;100.00;101735.25;6235147;28;20049;-90
2022/03/10 04:51:26;;;;;;;17.10;10.70;;;;;;;-0.85;100.00;101729.34;6235779;28;20048;-90
2022/03/10 04:54:28;;;;;;;17.92;9.88;;;;;;;-0.82;100.00;101741.19;6234788;28;20045;-90
2022/03/10 04:57:30;;;;;;;15.68;9.48;;;;;;;-0.83;100.00;101744.59;6236546;28;20063;-90
2022/03/10 05:00:33;;;;;;;18.20;10.75;;;;;;;-0.87;100.00;101746.31;6233672;28;20052;-90
2022/03/10 05:03:34;;;;;;;19.15;10.40;;;;;;;-0.87;100.00;101759.03;6234190;28;20526;-90
2022/03/10 05:06:36;;;;;;;18.27;10.52;;;;;;;-0.92;100.00;101759.09;6233328;28;20033;-90
2022/03/10 05:09:38;;;;;;;19.38;10.65;;;;;;;-0.96;100.00;101751.53;6229177;28;20072;-90
2022/03/10 05:12:49;;;;;;;19.02;10.52;;;;;;;-1.00;100.00;101749.88;6235873;28;20524;-90
2022/03/10 05:15:51;;;;;;;19.13;11.23;;;;;;;-0.99;100.00;101766.81;6236554;28;20041;-90
2022/03/10 05:18:53;;;;;;;18.55;10.65;;;;;;;-1.05;100.00;101759.25;6233438;28;20830;-90
2022/03/10 05:21:55;;;;;;;16.17;9.77;;;;;;;-1.11;100.00;101755.91;6227478;28;20042;-89
2022/03/10 05:24:57;;;;;;;16.17;9.88;;;;;;;-1.13;100.00;101759.31;6233857;28;20041;-90
2022/03/10 05:27:59;;;;;;;17.08;10.40;;;;;;;-1.19;100.00;101757.69;6230027;28;20636;-90
2022/03/10 05:31:01;;;;;;;17.77;10.55;;;;;;;-1.20;100.00;101767.88;6220353;28;20154;-90
2022/03/10 05:34:16;;;;;;;16.38;10.07;;;;;;;-1.19;100.00;101772.06;6233609;28;20045;-90
2022/03/10 05:37:18;;;;;;;16.13;9.75;;;;;;;-1.19;100.00;101772.94;6225812;28;20426;-90
2022/03/10 05:40:21;;;;;;;18.67;11.02;;;;;;;-1.17;100.00;101770.38;6258753;28;20064;-90
2022/03/10 05:43:23;;;;;;;18.83;10.82;;;;;;;-1.17;100.00;101771.25;6229628;28;20041;-90
2022/03/10 05:46:25;;;;;;;17.73;10.52;;;;;;;-1.11;100.00;101771.16;6241732;28;20045;-90
2022/03/10 05:49:27;;;;;;;17.60;10.48;;;;;;;-1.08;100.00;101781.28;6239747;28;20038;-90
2022/03/10 05:52:29;;;;;;;19.25;10.60;;;;;;;-1.05;100.00;101777.03;6243048;28;20050;-90
2022/03/10 05:55:56;;;;;;;17.00;9.68;;;;;;;-1.00;100.00;101782.91;6249934;28;20042;-90
2022/03/10 05:58:58;;;;;;;17.95;10.70;;;;;;;-0.99;100.00;101785.44;6230166;28;20049;-90
2022/03/10 06:02:18;;;;;;;18.70;10.68;;;;;;;-1.01;100.00;101792.22;6240089;28;20051;-90
2022/03/10 06:05:22;;;;;;;17.60;10.30;;;;;;;-0.98;100.00;101797.28;6228840;28;20045;-90
2022/03/10 06:08:25;;;;;;;16.75;10.15;;;;;;;-0.98;100.00;101804.91;6232845;28;20054;-90
2022/03/10 06:11:34;;;;;;;18.13;10.70;;;;;;;-0.99;100.00;101810.00;6243069;28;20048;-90
2022/03/10 06:14:37;;;;;;;19.60;11.23;;;;;;;-0.97;100.00;101803.19;6234941;28;20061;-90
2022/03/10 06:17:39;;;;;;;17.23;10.27;;;;;;;-0.94;100.00;101804.03;6249279;28;20104;-90
2022/03/10 06:20:42;;;;;;;16.77;10.73;;;;;;;-0.86;100.00;101798.84;6237857;28;20048;-90
2022/03/10 06:23:44;;;;;;;19.30;10.68;;;;;;;-0.82;100.00;101799.66;6244932;28;20061;-90
2022/03/10 06:26:46;;;;;;;18.67;10.00;;;;;;;-0.79;100.00;101800.47;6237147;28;20517;-90
2022/03/10 06:29:50;;;;;;;20.88;9.98;;;;;;;-0.78;100.00;101807.22;6239620;28;20076;-90
2022/03/10 06:32:52;;;;;;;16.50;9.95;;;;;;;-0.75;100.00;101812.25;6228250;28;20034;-90
2022/03/10 06:35:54;;;;;;;18.00;10.55;;;;;;;-0.73;100.00;101810.56;6245850;28;20101;-90
2022/03/10 06:38:56;;;;;;;17.92;10.20;;;;;;;-0.69;100.00;101808.84;6236862;28;20037;-90
2022/03/10 06:41:58;;;;;;;17.65;10.75;;;;;;;-0.56;100.00;101804.44;6232987;28;20041;-90
2022/03/10 06:45:01;;;;;;;17.15;9.65;;;;;;;-0.55;100.00;101811.19;6233073;28;20045;-90
2022/03/10 06:48:05;;;;;;;17.13;10.13;;;;;;;-0.52;100.00;101817.09;6226378;28;20782;-90
2022/03/10 06:51:07;;;;;;;20.08;10.07;;;;;;;-0.41;100.00;101824.59;6241732;28;20041;-90
2022/03/10 06:54:10;;;;;;;17.33;10.02;;;;;;;-0.37;100.00;101817.75;6234077;28;20041;-90
2022/03/10 06:57:12;;;;;;;18.25;10.10;;;;;;;-0.29;100.00;101813.44;6223545;28;20045;-90
2022/03/10 07:00:15;;;;;;;15.45;9.40;;;;;;;-0.21;100.00;101821.78;6229642;28;20569;-90
2022/03/10 07:03:18;;;;;;;17.63;10.68;;;;;;;-0.15;100.00;101825.94;6236088;28;20033;-90
2022/03/10 07:06:20;;;;;;;17.33;9.73;;;;;;;-0.15;100.00;101820.88;6230706;28;20054;-90
2022/03/10 07:09:23;;;;;;;20.23;9.80;;;;;;;-0.10;100.00;101831.81;6231264;28;20152;-90
2022/03/10 07:12:28;;;;;;;16.67;9.45;;;;;;;-0.04;100.00;101829.22;6235525;28;20076;-90
2022/03/10 07:15:30;;;;;;;15.68;9.25;;;;;;;0.05;100.00;101834.19;6249239;28;20046;-90
2022/03/10 07:18:33;;;;;;;16.45;9.57;;;;;;;0.11;100.00;101828.97;6246985;28;20033;-91
2022/03/10 07:21:38;;;;;;;16.65;8.80;;;;;;;0.19;100.00;101832.25;6228899;28;20088;-91
2022/03/10 07:24:53;;;;;;;16.13;9.00;;;;;;;0.28;100.00;101831.28;6231868;28;20045;-91
2022/03/10 07:27:55;;;;;;;14.18;8.95;;;;;;;0.32;100.00;101824.44;6233313;28;20042;-91
2022/03/10 07:30:57;;;;;;;17.55;9.13;;;;;;;0.38;100.00;101827.72;6231743;28;20049;-91
2022/03/10 07:33:59;;;;;;;17.92;9.63;;;;;;;0.45;100.00;101831.03;6229571;28;20477;-91
2022/03/10 07:37:02;;;;;;;17.02;9.88;;;;;;;0.52;100.00;101837.72;6224415;28;20044;-91
2022/03/10 07:40:05;;;;;;;15.25;8.93;;;;;;;0.66;100.00;101836.63;6226419;28;20045;-91
2022/03/10 07:43:09;;;;;;;15.48;9.10;;;;;;;0.70;100.00;101841.66;6228500;28;20156;-91
2022/03/10 07:46:25;;;;;;;14.05;9.35;;;;;;;0.78;100.00;101844.09;6220256;28;20045;-91
2022/03/10 07:49:29;;;;;;;13.43;8.80;;;;;;;0.89;100.00;101857.47;6246810;28;20073;-91
2022/03/10 07:52:33;;;;;;;15.30;8.57;;;;;;;0.98;100.00;101859.03;6228039;28;20040;-91
2022/03/10 07:55:38;;;;;;;14.77;8.88;;;;;;;1.07;100.00;101854.63;6261758;28;20049;-91
2022/03/10 07:58:40;;;;;;;15.65;9.20;;;;;;;1.18;100.00;101848.47;6226434;28;20219;-91
2022/03/10 08:01:42;;;;;;;16.83;8.70;;;;;;;1.31;100.00;101847.34;6229206;28;20060;-91
2022/03/10 08:04:45;;;;;;;12.32;8.55;;;;;;;1.38;100.00;101853.19;6226765;28;20038;-91
2022/03/10 08:07:47;;;;;;;16.45;8.63;;;;;;;1.43;100.00;101856.50;6231252;28;20091;-91
2022/03/10 08:10:50;;;;;;;17.33;9.23;;;;;;;1.46;100.00;101847.06;6226505;28;20038;-91
2022/03/10 08:13:53;;;;;;;18.00;9.35;;;;;;;1.57;100.00;101848.59;6237144;28;20054;-92
2022/03/10 08:16:55;;;;;;;13.63;8.07;;;;;;;1.70;100.00;101834.69;6235298;28;20048;-92
2022/03/10 08:19:57;;;;;;;13.15;8.27;;;;;;;1.83;100.00;101835.25;6243308;28;20049;-92
2022/03/10 08:23:15;;;;;;;15.95;9.10;;;;;;;1.93;100.00;101836.75;6242091;28;20046;-92
2022/03/10 08:26:19;;;;;;;16.00;8.60;;;;;;;2.03;100.00;101835.66;6231835;28;20139;-92
2022/03/10 08:29:23;;;;;;;13.23;8.50;;;;;;;2.10;100.00;101838.94;6240048;28;20598;-92
2022/03/10 08:32:26;;;;;;;16.95;8.98;;;;;;;2.22;100.00;101837.81;6244883;28;20081;-92
2022/03/10 08:35:29;;;;;;;15.48;9.05;;;;;;;2.34;100.00;101838.38;6249586;28;20514;-92
2022/03/10 08:38:33;;;;;;;14.18;8.32;;;;;;;2.49;100.00;101836.34;6245891;28;20088;-92
2022/03/10 08:41:38;;;;;;;14.85;8.43;;;;;;;2.62;100.00;101839.44;6262443;28;20037;-92
2022/03/10 08:44:42;;;;;;;12.88;7.63;;;;;;;2.64;100.00;101838.50;6261794;28;20041;-92
2022/03/10 08:48:20;;;;;;;12.55;8.23;;;;;;;2.77;100.00;101832.19;6162630;28;20063;-93
2022/03/10 08:52:05;;;;;;;14.68;8.35;;;;;;;2.89;100.00;101832.78;6206593;28;20043;-93
2022/03/10 08:55:25;;;;;;;16.67;8.57;;;;;;;3.03;100.00;101825.56;1387847;23;20340;31
2022/03/10 08:58:53;;;;;;;20.20;9.30;;;;;;;3.15;100.00;101830.34;3431198;22;20206;-92
2022/03/10 09:05:55;;;;;;;11.35;7.65;;;;;;;3.40;100.00;101827.13;4480820;23;20208;-92
2022/03/10 09:09:52;;;;;;;11.73;7.88;;;;;;;3.54;100.00;101821.63;4342560;23;20210;-92
2022/03/10 09:16:57;;;;;;;12.50;8.30;;;;;;;3.85;100.00;101824.09;6858697;23;20059;-91
2022/03/10 17:52:38;;;;;;;7.10;3.90;;;;;;;6.39;76.78;101571.78;1786704;23;20235;-92
2022/03/10 18:03:04;;;;;;;7.63;4.38;;;;;;;6.12;79.59;101572.09;5709359;23;20042;-93
2022/03/10 18:06:14;;;;;;;7.63;4.05;;;;;;;6.06;79.64;101574.91;6047664;29;20141;-93
2022/03/10 18:09:33;;;;;;;8.48;4.63;;;;;;;6.07;81.23;101575.75;6015674;29;20050;-93
2022/03/10 18:12:39;;;;;;;10.32;3.95;;;;;;;5.90;81.22;101568.72;6020800;29;20076;-93
2022/03/10 18:15:42;;;;;;;9.00;4.20;;;;;;;5.88;82.51;101578.25;6031224;29;20030;-93
2022/03/10 18:18:55;;;;;;;9.55;4.55;;;;;;;5.67;82.96;101574.84;6065203;24;20065;-92
2022/03/10 18:22:25;;;;;;;6.55;4.30;;;;;;;5.71;84.06;101579.75;6179490;24;20062;-92
2022/03/10 18:25:47;;;;;;;8.25;5.07;;;;;;;5.77;84.34;101576.97;6002471;29;20043;-93
2022/03/10 18:29:00;;;;;;;11.65;4.93;;;;;;;5.61;84.17;101573.34;6177525;24;20057;-92
2022/03/10 18:32:05;;;;;;;9.27;5.25;;;;;;;5.61;85.81;101586.19;6240179;23;20028;-93
2022/03/10 18:35:27;;;;;;;9.98;5.85;;;;;;;5.69;85.36;101579.03;6030952;29;20038;-93
2022/03/10 18:38:41;;;;;;;10.93;5.55;;;;;;;5.58;85.42;101586.31;6028120;29;20050;-93
2022/03/10 18:41:56;;;;;;;8.60;5.20;;;;;;;5.39;86.81;101591.34;6024770;29;20059;-92
2022/03/10 18:45:12;;;;;;;8.77;5.65;;;;;;;5.40;87.40;101593.88;6007645;29;20117;-92
2022/03/10 18:48:21;;;;;;;13.15;7.28;;;;;;;5.34;88.83;101586.44;6050799;29;20033;-93
2022/03/10 18:51:26;;;;;;;11.13;6.72;;;;;;;5.29;89.99;101593.47;6176191;24;20456;-92
2022/03/10 18:54:39;;;;;;;16.27;7.53;;;;;;;5.30;89.55;101584.88;3576878;24;20044;-92
2022/03/10 18:58:04;;;;;;;14.50;6.82;;;;;;;5.31;91.50;101589.09;6155342;24;20037;-92
2022/03/10 19:01:11;;;;;;;13.48;7.70;;;;;;;5.25;92.41;101591.91;6033187;29;20057;-92
2022/03/10 19:04:17;;;;;;;13.65;7.75;;;;;;;5.09;93.62;101583.13;6032180;29;20094;-93
2022/03/10 19:07:29;;;;;;;13.98;8.43;;;;;;;5.01;96.21;101585.19;6011530;29;20057;-93
2022/03/10 19:10:45;;;;;;;14.50;8.93;;;;;;;4.95;98.26;101581.13;6033054;29;20059;-93
2022/03/10 19:13:55;;;;;;;18.23;9.27;;;;;;;5.05;97.75;101585.00;6018068;29;20113;-93
2022/03/10 19:17:07;;;;;;;16.25;9.98;;;;;;;4.90;99.22;101589.00;5970785;29;20113;-92
2022/03/10 19:20:12;;;;;;;18.45;9.98;;;;;;;4.74;100.00;101585.31;5973017;29;20047;-93
2022/03/10 19:23:14;;;;;;;19.60;10.70;;;;;;;4.97;100.00;101582.75;5962927;29;20077;-92
2022/03/10 19:26:21;;;;;;;19.08;9.85;;;;;;;4.90;100.00;101586.44;5949002;29;20145;-90
2022/03/10 19:29:24;;;;;;;16.85;10.15;;;;;;;4.94;100.00;101590.56;5971327;29;20051;-92
2022/03/10 19:32:28;;;;;;;20.17;11.00;;;;;;;4.78;100.00;101586.06;5955939;29;20097;-92
2022/03/10 19:35:39;;;;;;;18.00;10.55;;;;;;;4.71;100.00;101583.72;5966935;29;20137;-92
2022/03/10 19:38:46;;;;;;;22.27;11.20;;;;;;;4.60;100.00;101588.41;5963213;29;20050;-92
2022/03/10 20:30:54;;;;;;;28.20;14.60;;;;;;;3.87;100.00;101586.72;6691015;23;20824;-92
2022/03/10 20:34:32;;;;;;;28.33;13.93;;;;;;;3.66;100.00;101578.88;6952564;23;20105;31
2022/03/10 20:46:06;;;;;;;23.88;13.35;;;;;;;3.41;100.00;101580.56;6810171;23;19975;-92
2022/03/10 20:49:23;;;;;;;25.67;13.93;;;;;;;3.22;100.00;101581.13;6072184;23;20042;31
2022/03/10 20:52:49;;;;;;;26.27;13.88;;;;;;;3.28;100.00;101575.00;6083977;24;19908;-92
2022/03/10 20:56:10;;;;;;;28.98;14.50;;;;;;;3.28;100.00;101575.00;6252262;23;20053;-92
2022/03/10 20:59:35;;;;;;;22.10;12.65;;;;;;;3.34;100.00;101576.53;6199708;24;20061;-92
2022/03/10 21:03:12;;;;;;;24.13;14.00;;;;;;;3.10;100.00;101571.28;6034327;29;20299;-92
2022/03/10 21:10:17;;;;;;;25.40;13.75;;;;;;;2.92;100.00;101556.50;6068559;24;20036;-92
2022/03/10 21:13:24;;;;;;;25.40;13.35;;;;;;;2.98;100.00;101553.75;6080210;24;20061;-92
2022/03/10 21:16:34;;;;;;;26.60;13.95;;;;;;;3.02;100.00;101556.16;6028296;29;20050;-92
2022/03/10 21:20:03;;;;;;;24.08;13.77;;;;;;;3.04;100.00;101548.47;6012774;24;20052;-92
2022/03/10 21:23:09;;;;;;;23.00;12.93;;;;;;;3.05;100.00;101549.28;6017701;29;20137;-92
2022/03/10 21:26:12;;;;;;;25.77;14.02;;;;;;;3.01;100.00;101553.69;6002255;29;20034;-92
2022/03/10 21:29:18;;;;;;;23.38;13.00;;;;;;;2.89;100.00;101554.06;5990041;29;20431;-92
2022/03/10 21:32:21;;;;;;;26.38;14.07;;;;;;;2.81;100.00;101554.28;5985459;29;20058;-92
2022/03/10 21:35:24;;;;;;;24.23;13.93;;;;;;;2.78;100.00;101549.25;5988797;29;20113;-92
2022/03/10 21:38:30;;;;;;;28.58;14.60;;;;;;;2.72;100.00;101557.94;5987654;29;20538;-92
2022/03/10 21:41:40;;;;;;;21.33;12.45;;;;;;;2.55;100.00;101553.31;6000917;29;20312;-92
2022/03/10 21:44:43;;;;;;;25.80;12.98;;;;;;;2.61;100.00;101548.91;6005107;29;20050;-92
2022/03/10 21:47:47;;;;;;;23.65;13.30;;;;;;;2.39;100.00;101546.97;5985706;29;20054;-92
2022/03/10 21:50:51;;;;;;;25.63;12.98;;;;;;;2.40;100.00;101550.38;5970616;29;20054;-92
2022/03/10 21:54:16;;;;;;;22.05;12.43;;;;;;;2.41;100.00;101541.81;5995285;29;20048;-92
2022/03/10 21:57:21;;;;;;;23.52;12.80;;;;;;;2.35;100.00;101542.84;5999220;29;20099;-92
2022/03/10 22:00:23;;;;;;;27.60;14.05;;;;;;;2.31;100.00;101544.66;5996321;29;20061;-92
2022/03/10 22:03:26;;;;;;;23.75;12.85;;;;;;;2.22;100.00;101544.06;5996252;29;20046;-92
2022/03/10 22:06:39;;;;;;;22.30;12.43;;;;;;;2.29;100.00;101537.91;5962751;29;20051;-92
2022/03/10 22:09:42;;;;;;;23.30;13.43;;;;;;;2.29;100.00;101531.06;5994357;29;20126;-93
2022/03/10 22:12:45;;;;;;;24.23;12.63;;;;;;;2.21;100.00;101534.72;5963510;29;20065;-92
2022/03/10 22:15:48;;;;;;;20.92;12.73;;;;;;;2.15;100.00;101531.44;5980223;29;21427;-92
2022/03/10 22:18:50;;;;;;;20.13;12.32;;;;;;;2.24;100.00;101543.16;5993239;29;20093;-92
2022/03/10 22:21:53;;;;;;;21.20;12.32;;;;;;;2.17;100.00;101541.63;5996102;29;20178;-92
2022/03/10 22:24:55;;;;;;;21.30;12.20;;;;;;;2.06;100.00;101536.84;5994736;29;20074;-92
2022/03/10 22:27:58;;;;;;;20.92;12.43;;;;;;;2.09;100.00;101541.03;5975052;29;20056;-92
2022/03/10 22:31:01;;;;;;;21.13;11.57;;;;;;;2.02;100.00;101534.41;5995095;29;20042;-92
2022/03/10 22:34:04;;;;;;;18.80;11.55;;;;;;;1.94;100.00;101534.59;5989682;29;20129;-92
2022/03/10 22:37:07;;;;;;;22.42;12.00;;;;;;;1.84;100.00;101534.00;5988405;29;20043;-91
2022/03/10 22:40:10;;;;;;;17.95;11.30;;;;;;;1.74;100.00;101535.13;5988174;29;20115;-92
2022/03/10 22:43:12;;;;;;;17.75;11.20;;;;;;;1.67;100.00;101537.00;5958044;29;20068;-92
2022/03/10 22:46:15;;;;;;;18.23;11.60;;;;;;;1.56;100.00;101535.59;5987942;29;20038;-92
2022/03/10 22:49:17;;;;;;;17.38;10.52;;;;;;;1.54;100.00;101528.00;5991012;29;20121;-92
2022/03/10 22:55:41;;;;;;;18.15;10.60;;;;;;;1.49;100.00;101527.25;5989030;29;20054;-91
2022/03/10 22:58:44;;;;;;;18.65;10.70;;;;;;;1.53;100.00;101526.28;5979346;29;20043;-92
2022/03/10 23:01:46;;;;;;;19.33;10.82;;;;;;;1.43;100.00;101525.69;5970241;29;20091;-92
2022/03/10 23:08:10;;;;;;;20.23;11.80;;;;;;;1.45;100.00;101525.66;5979512;29;20038;-92
2022/03/10 23:11:22;;;;;;;23.15;11.43;;;;;;;1.47;100.00;101522.19;5983134;29;20058;-91
2022/03/10 23:14:24;;;;;;;19.15;10.98;;;;;;;1.43;100.00;101523.13;5992489;29;20065;-92
2022/03/10 23:17:27;;;;;;;18.15;10.25;;;;;;;1.45;100.00;101523.94;5986026;29;20152;-92
2022/03/10 23:20:29;;;;;;;22.15;11.52;;;;;;;1.39;100.00;101523.25;5987760;29;20042;-92
2022/03/10 23:23:31;;;;;;;18.80;10.20;;;;;;;1.27;100.00;101532.06;5985322;29;20099;-91
2022/03/10 23:26:34;;;;;;;17.50;9.90;;;;;;;1.22;100.00;101521.13;5970145;29;20164;-91
2022/03/10 23:29:36;;;;;;;19.33;10.50;;;;;;;1.14;100.00;101528.09;5989585;29;20462;-91
2022/03/10 23:32:38;;;;;;;19.10;10.50;;;;;;;0.99;100.00;101530.13;5984034;29;20061;-92
2022/03/10 23:35:41;;;;;;;17.55;10.07;;;;;;;0.88;100.00;101527.00;5985710;29;20053;-91
2022/03/10 23:38:43;;;;;;;17.50;10.10;;;;;;;0.86;100.00;101521.91;5983503;29;20174;-91
2022/03/10 23:41:45;;;;;;;19.58;10.00;;;;;;;0.84;100.00;101531.31;5985792;29;20057;-91
2022/03/10 23:44:49;;;;;;;19.70;9.93;;;;;;;0.78;100.00;101516.16;5967812;29;20058;-91
2022/03/10 23:47:51;;;;;;;17.90;10.63;;;;;;;0.76;100.00;101514.53;6008228;29;20035;-91
2022/03/10 23:50:56;;;;;;;18.83;10.88;;;;;;;0.78;100.00;101515.34;5994808;29;20070;-91
2022/03/10 23:53:58;;;;;;;19.02;10.02;;;;;;;0.70;100.00;101512.13;5976809;29;20609;-91
2022/03/10 23:57:00;;;;;;;17.58;10.57;;;;;;;0.62;100.00;101515.69;5982176;29;20053;-91
